sensor_id;sensor_type;location;lat;lon;timestamp;temperature;humidity
14985;DHT22;7588;62.368;25.902;2023-04-27T00:01:11;4.50;99.90
14985;DHT22;7588;62.368;25.902;2023-04-27T00:03:37;4.70;99.90
14985;DHT22;7588;62.368;25.902;2023-04-27T00:06:03;4.60;99.90
14985;DHT22;7588;62.368;25.902;2023-04-27T00:08:29;4.70;99.90
14985;DHT22;7588;62.368;25.902;2023-04-27T00:10:56;4.60;99.90
14985;DHT22;7588;62.368;25.902;2023-04-27T00:13:21;4.60;99.90
14985;DHT22;7588;62.368;25.902;2023-04-27T00:15:47;4.60;99.90
14985;DHT22;7588;62.368;25.902;2023-04-27T00:18:13;4.60;99.90
14985;DHT22;7588;62.368;25.902;2023-04-27T00:20:39;4.50;99.90
14985;DHT22;7588;62.368;25.902;2023-04-27T00:23:05;4.50;99.90
14985;DHT22;7588;62.368;25.902;2023-04-27T00:25:31;4.50;99.90
14985;DHT22;7588;62.368;25.902;2023-04-27T00:27:57;4.50;99.90
14985;DHT22;7588;62.368;25.902;2023-04-27T00:30:23;4.60;99.90
14985;DHT22;7588;62.368;25.902;2023-04-27T00:32:48;4.60;99.90
14985;DHT22;7588;62.368;25.902;2023-04-27T00:35:14;4.60;99.90
14985;DHT22;7588;62.368;25.902;2023-04-27T00:37:40;4.60;99.90
14985;DHT22;7588;62.368;25.902;2023-04-27T00:40:06;4.60;99.90
14985;DHT22;7588;62.368;25.902;2023-04-27T00:42:33;4.60;99.90
14985;DHT22;7588;62.368;25.902;2023-04-27T00:44:59;4.60;99.90
14985;DHT22;7588;62.368;25.902;2023-04-27T00:47:24;4.50;99.90
14985;DHT22;7588;62.368;25.902;2023-04-27T00:49:51;4.50;99.90
14985;DHT22;7588;62.368;25.902;2023-04-27T00:52:17;4.50;99.90
14985;DHT22;7588;62.368;25.902;2023-04-27T00:54:43;4.50;99.90
14985;DHT22;7588;62.368;25.902;2023-04-27T00:57:09;4.50;99.90
14985;DHT22;7588;62.368;25.902;2023-04-27T00:59:35;4.60;99.90
14985;DHT22;7588;62.368;25.902;2023-04-27T01:02:01;4.70;99.90
14985;DHT22;7588;62.368;25.902;2023-04-27T01:04:27;4.70;99.90
14985;DHT22;7588;62.368;25.902;2023-04-27T01:06:54;4.60;99.90
14985;DHT22;7588;62.368;25.902;2023-04-27T01:09:20;4.60;99.90
14985;DHT22;7588;62.368;25.902;2023-04-27T01:11:46;4.60;99.90
14985;DHT22;7588;62.368;25.902;2023-04-27T01:14:12;4.60;99.90
14985;DHT22;7588;62.368;25.902;2023-04-27T01:16:37;4.60;99.90
14985;DHT22;7588;62.368;25.902;2023-04-27T01:19:03;4.60;99.90
14985;DHT22;7588;62.368;25.902;2023-04-27T01:21:29;4.60;99.90
14985;DHT22;7588;62.368;25.902;2023-04-27T01:23:55;4.60;99.90
14985;DHT22;7588;62.368;25.902;2023-04-27T01:26:21;4.60;99.90
14985;DHT22;7588;62.368;25.902;2023-04-27T01:28:47;4.50;99.90
14985;DHT22;7588;62.368;25.902;2023-04-27T01:31:13;4.50;99.90
14985;DHT22;7588;62.368;25.902;2023-04-27T01:33:40;4.60;99.90
14985;DHT22;7588;62.368;25.902;2023-04-27T01:36:07;4.60;99.90
14985;DHT22;7588;62.368;25.902;2023-04-27T01:38:33;4.60;99.90
14985;DHT22;7588;62.368;25.902;2023-04-27T01:40:59;4.60;99.90
14985;DHT22;7588;62.368;25.902;2023-04-27T01:43:30;4.70;99.90
14985;DHT22;7588;62.368;25.902;2023-04-27T01:46:06;4.80;99.90
14985;DHT22;7588;62.368;25.902;2023-04-27T01:48:32;4.90;99.90
14985;DHT22;7588;62.368;25.902;2023-04-27T01:50:58;5.00;99.90
14985;DHT22;7588;62.368;25.902;2023-04-27T01:53:24;4.80;99.90
14985;DHT22;7588;62.368;25.902;2023-04-27T01:55:49;4.70;99.90
14985;DHT22;7588;62.368;25.902;2023-04-27T01:58:15;4.70;99.90
14985;DHT22;7588;62.368;25.902;2023-04-27T02:00:41;4.70;99.90
14985;DHT22;7588;62.368;25.902;2023-04-27T02:03:07;4.70;99.90
14985;DHT22;7588;62.368;25.902;2023-04-27T02:05:32;4.70;99.90
14985;DHT22;7588;62.368;25.902;2023-04-27T02:07:58;4.70;99.90
14985;DHT22;7588;62.368;25.902;2023-04-27T02:10:23;4.70;99.90
14985;DHT22;7588;62.368;25.902;2023-04-27T02:12:49;4.80;99.90
14985;DHT22;7588;62.368;25.902;2023-04-27T02:15:15;4.80;99.90
14985;DHT22;7588;62.368;25.902;2023-04-27T02:17:41;4.90;99.90
14985;DHT22;7588;62.368;25.902;2023-04-27T02:20:08;4.90;99.90
14985;DHT22;7588;62.368;25.902;2023-04-27T02:22:35;5.00;99.90
14985;DHT22;7588;62.368;25.902;2023-04-27T02:25:02;5.00;99.90
14985;DHT22;7588;62.368;25.902;2023-04-27T02:27:27;5.10;99.90
14985;DHT22;7588;62.368;25.902;2023-04-27T02:29:53;5.00;99.90
14985;DHT22;7588;62.368;25.902;2023-04-27T02:32:19;5.00;99.90
14985;DHT22;7588;62.368;25.902;2023-04-27T02:34:45;5.00;99.90
14985;DHT22;7588;62.368;25.902;2023-04-27T02:37:10;5.20;99.90
14985;DHT22;7588;62.368;25.902;2023-04-27T02:39:36;5.40;99.90
14985;DHT22;7588;62.368;25.902;2023-04-27T02:42:02;5.60;99.90
14985;DHT22;7588;62.368;25.902;2023-04-27T02:44:28;5.70;99.90
14985;DHT22;7588;62.368;25.902;2023-04-27T02:46:54;5.80;99.90
14985;DHT22;7588;62.368;25.902;2023-04-27T02:49:19;5.90;99.90
14985;DHT22;7588;62.368;25.902;2023-04-27T02:51:45;6.00;99.90
14985;DHT22;7588;62.368;25.902;2023-04-27T02:54:11;6.10;99.90
14985;DHT22;7588;62.368;25.902;2023-04-27T02:56:36;6.20;99.90
14985;DHT22;7588;62.368;25.902;2023-04-27T02:59:02;6.30;99.90
14985;DHT22;7588;62.368;25.902;2023-04-27T03:01:28;6.30;99.90
14985;DHT22;7588;62.368;25.902;2023-04-27T03:03:54;6.20;99.90
14985;DHT22;7588;62.368;25.902;2023-04-27T03:06:19;6.30;99.90
14985;DHT22;7588;62.368;25.902;2023-04-27T03:08:45;6.20;99.90
14985;DHT22;7588;62.368;25.902;2023-04-27T03:11:11;6.20;99.90
14985;DHT22;7588;62.368;25.902;2023-04-27T03:13:37;6.20;99.90
14985;DHT22;7588;62.368;25.902;2023-04-27T03:16:09;6.20;99.90
14985;DHT22;7588;62.368;25.902;2023-04-27T03:18:39;6.10;99.90
14985;DHT22;7588;62.368;25.902;2023-04-27T03:21:09;6.10;99.90
14985;DHT22;7588;62.368;25.902;2023-04-27T03:23:35;6.10;99.90
14985;DHT22;7588;62.368;25.902;2023-04-27T03:26:19;6.10;99.90
14985;DHT22;7588;62.368;25.902;2023-04-27T03:28:46;6.10;99.90
14985;DHT22;7588;62.368;25.902;2023-04-27T03:31:13;6.10;99.90
14985;DHT22;7588;62.368;25.902;2023-04-27T03:33:39;6.30;99.90
14985;DHT22;7588;62.368;25.902;2023-04-27T03:36:06;6.40;99.90
14985;DHT22;7588;62.368;25.902;2023-04-27T03:38:33;6.40;99.90
14985;DHT22;7588;62.368;25.902;2023-04-27T03:41:00;6.40;99.90
14985;DHT22;7588;62.368;25.902;2023-04-27T03:43:26;6.40;99.90
14985;DHT22;7588;62.368;25.902;2023-04-27T03:45:51;6.40;99.90
14985;DHT22;7588;62.368;25.902;2023-04-27T03:48:18;6.30;99.90
14985;DHT22;7588;62.368;25.902;2023-04-27T03:50:44;6.30;99.90
14985;DHT22;7588;62.368;25.902;2023-04-27T03:53:10;6.30;99.90
14985;DHT22;7588;62.368;25.902;2023-04-27T03:55:40;6.30;99.90
14985;DHT22;7588;62.368;25.902;2023-04-27T03:58:07;6.40;99.90
14985;DHT22;7588;62.368;25.902;2023-04-27T04:00:35;6.40;99.90
14985;DHT22;7588;62.368;25.902;2023-04-27T04:03:02;6.40;99.90
14985;DHT22;7588;62.368;25.902;2023-04-27T04:05:27;6.50;99.90
14985;DHT22;7588;62.368;25.902;2023-04-27T04:07:55;6.40;99.90
14985;DHT22;7588;62.368;25.902;2023-04-27T04:10:21;6.40;99.90
14985;DHT22;7588;62.368;25.902;2023-04-27T04:12:47;6.40;99.90
14985;DHT22;7588;62.368;25.902;2023-04-27T04:15:13;6.40;99.90
14985;DHT22;7588;62.368;25.902;2023-04-27T04:17:39;6.40;99.90
14985;DHT22;7588;62.368;25.902;2023-04-27T04:20:05;6.40;99.90
14985;DHT22;7588;62.368;25.902;2023-04-27T04:22:35;6.40;99.90
14985;DHT22;7588;62.368;25.902;2023-04-27T04:25:01;6.40;99.90
14985;DHT22;7588;62.368;25.902;2023-04-27T04:27:28;6.40;99.90
14985;DHT22;7588;62.368;25.902;2023-04-27T04:29:53;6.40;99.90
14985;DHT22;7588;62.368;25.902;2023-04-27T04:32:20;6.40;99.90
14985;DHT22;7588;62.368;25.902;2023-04-27T04:34:48;6.50;99.90
14985;DHT22;7588;62.368;25.902;2023-04-27T04:37:16;6.50;99.90
14985;DHT22;7588;62.368;25.902;2023-04-27T04:39:44;6.50;99.90
14985;DHT22;7588;62.368;25.902;2023-04-27T04:42:10;6.60;99.90
14985;DHT22;7588;62.368;25.902;2023-04-27T04:44:35;6.70;99.90
14985;DHT22;7588;62.368;25.902;2023-04-27T04:47:01;6.80;99.90
14985;DHT22;7588;62.368;25.902;2023-04-27T04:49:27;6.80;99.90
14985;DHT22;7588;62.368;25.902;2023-04-27T04:51:52;6.90;99.90
14985;DHT22;7588;62.368;25.902;2023-04-27T04:54:18;6.90;99.90
14985;DHT22;7588;62.368;25.902;2023-04-27T04:56:44;6.80;99.90
14985;DHT22;7588;62.368;25.902;2023-04-27T04:59:10;6.80;99.90
14985;DHT22;7588;62.368;25.902;2023-04-27T05:01:36;6.70;99.90
14985;DHT22;7588;62.368;25.902;2023-04-27T05:04:02;6.70;99.90
14985;DHT22;7588;62.368;25.902;2023-04-27T05:06:28;6.80;99.90
14985;DHT22;7588;62.368;25.902;2023-04-27T05:08:54;6.80;99.90
14985;DHT22;7588;62.368;25.902;2023-04-27T05:11:20;6.90;99.90
14985;DHT22;7588;62.368;25.902;2023-04-27T05:13:46;7.00;99.90
14985;DHT22;7588;62.368;25.902;2023-04-27T05:16:12;7.00;99.90
14985;DHT22;7588;62.368;25.902;2023-04-27T05:18:38;7.10;99.90
14985;DHT22;7588;62.368;25.902;2023-04-27T05:21:03;7.00;99.90
14985;DHT22;7588;62.368;25.902;2023-04-27T05:23:30;7.10;99.90
14985;DHT22;7588;62.368;25.902;2023-04-27T05:25:55;7.10;99.90
14985;DHT22;7588;62.368;25.902;2023-04-27T05:28:21;7.10;99.90
14985;DHT22;7588;62.368;25.902;2023-04-27T05:30:47;7.20;99.90
14985;DHT22;7588;62.368;25.902;2023-04-27T05:33:12;7.20;99.90
14985;DHT22;7588;62.368;25.902;2023-04-27T05:35:38;7.20;99.90
14985;DHT22;7588;62.368;25.902;2023-04-27T05:38:04;7.20;99.90
14985;DHT22;7588;62.368;25.902;2023-04-27T05:40:29;7.30;99.90
14985;DHT22;7588;62.368;25.902;2023-04-27T05:42:55;7.30;99.90
14985;DHT22;7588;62.368;25.902;2023-04-27T05:45:23;7.20;99.90
14985;DHT22;7588;62.368;25.902;2023-04-27T05:47:49;7.20;99.90
14985;DHT22;7588;62.368;25.902;2023-04-27T05:50:15;7.20;99.90
14985;DHT22;7588;62.368;25.902;2023-04-27T05:52:40;7.10;99.90
14985;DHT22;7588;62.368;25.902;2023-04-27T05:55:06;7.10;99.90
14985;DHT22;7588;62.368;25.902;2023-04-27T05:57:32;7.20;99.90
14985;DHT22;7588;62.368;25.902;2023-04-27T05:59:58;7.10;99.90
14985;DHT22;7588;62.368;25.902;2023-04-27T06:02:25;7.20;99.90
14985;DHT22;7588;62.368;25.902;2023-04-27T06:04:51;7.10;99.90
14985;DHT22;7588;62.368;25.902;2023-04-27T06:07:16;7.10;99.90
14985;DHT22;7588;62.368;25.902;2023-04-27T06:09:42;7.10;99.90
14985;DHT22;7588;62.368;25.902;2023-04-27T06:12:08;7.10;99.90
14985;DHT22;7588;62.368;25.902;2023-04-27T06:14:35;7.10;99.90
14985;DHT22;7588;62.368;25.902;2023-04-27T06:17:02;7.10;99.90
14985;DHT22;7588;62.368;25.902;2023-04-27T06:19:27;7.10;99.90
14985;DHT22;7588;62.368;25.902;2023-04-27T06:21:54;7.10;99.90
14985;DHT22;7588;62.368;25.902;2023-04-27T06:24:20;7.10;99.90
14985;DHT22;7588;62.368;25.902;2023-04-27T06:26:47;7.10;99.90
14985;DHT22;7588;62.368;25.902;2023-04-27T06:29:13;7.10;99.90
14985;DHT22;7588;62.368;25.902;2023-04-27T06:31:39;7.10;99.90
14985;DHT22;7588;62.368;25.902;2023-04-27T06:34:05;7.10;99.90
14985;DHT22;7588;62.368;25.902;2023-04-27T06:36:31;7.10;99.90
14985;DHT22;7588;62.368;25.902;2023-04-27T06:38:57;7.10;99.90
14985;DHT22;7588;62.368;25.902;2023-04-27T06:41:25;7.10;99.90
14985;DHT22;7588;62.368;25.902;2023-04-27T06:43:51;7.10;99.90
14985;DHT22;7588;62.368;25.902;2023-04-27T06:46:17;7.20;99.90
14985;DHT22;7588;62.368;25.902;2023-04-27T06:48:43;7.20;99.90
14985;DHT22;7588;62.368;25.902;2023-04-27T06:51:08;7.20;99.90
14985;DHT22;7588;62.368;25.902;2023-04-27T06:53:34;7.20;99.90
14985;DHT22;7588;62.368;25.902;2023-04-27T06:56:00;7.20;99.90
14985;DHT22;7588;62.368;25.902;2023-04-27T06:58:26;7.30;99.90
14985;DHT22;7588;62.368;25.902;2023-04-27T07:00:52;7.30;99.90
14985;DHT22;7588;62.368;25.902;2023-04-27T07:03:18;7.30;99.90
14985;DHT22;7588;62.368;25.902;2023-04-27T07:05:44;7.30;99.90
14985;DHT22;7588;62.368;25.902;2023-04-27T07:08:09;7.30;99.90
14985;DHT22;7588;62.368;25.902;2023-04-27T07:10:35;7.30;99.90
14985;DHT22;7588;62.368;25.902;2023-04-27T07:13:01;7.30;99.90
14985;DHT22;7588;62.368;25.902;2023-04-27T07:15:27;7.30;99.90
14985;DHT22;7588;62.368;25.902;2023-04-27T07:17:52;7.30;99.90
14985;DHT22;7588;62.368;25.902;2023-04-27T07:20:21;7.30;99.90
14985;DHT22;7588;62.368;25.902;2023-04-27T07:22:47;7.40;99.90
14985;DHT22;7588;62.368;25.902;2023-04-27T07:25:13;7.40;99.90
14985;DHT22;7588;62.368;25.902;2023-04-27T07:27:39;7.50;99.90
14985;DHT22;7588;62.368;25.902;2023-04-27T07:30:06;7.50;99.90
14985;DHT22;7588;62.368;25.902;2023-04-27T07:32:35;7.50;99.90
14985;DHT22;7588;62.368;25.902;2023-04-27T07:35:01;7.40;99.90
14985;DHT22;7588;62.368;25.902;2023-04-27T07:37:27;7.30;99.90
14985;DHT22;7588;62.368;25.902;2023-04-27T07:39:54;7.30;99.90
14985;DHT22;7588;62.368;25.902;2023-04-27T07:42:20;7.30;99.90
14985;DHT22;7588;62.368;25.902;2023-04-27T07:44:49;7.40;99.90
14985;DHT22;7588;62.368;25.902;2023-04-27T07:47:15;7.30;99.90
14985;DHT22;7588;62.368;25.902;2023-04-27T07:49:43;7.30;99.90
14985;DHT22;7588;62.368;25.902;2023-04-27T07:52:10;7.30;99.90
14985;DHT22;7588;62.368;25.902;2023-04-27T07:54:36;7.30;99.90
14985;DHT22;7588;62.368;25.902;2023-04-27T07:57:07;7.20;99.90
14985;DHT22;7588;62.368;25.902;2023-04-27T07:59:34;7.20;99.90
14985;DHT22;7588;62.368;25.902;2023-04-27T08:02:00;7.30;99.90
14985;DHT22;7588;62.368;25.902;2023-04-27T08:04:25;7.20;99.90
14985;DHT22;7588;62.368;25.902;2023-04-27T08:06:51;7.30;99.90
14985;DHT22;7588;62.368;25.902;2023-04-27T08:09:17;7.40;99.90
14985;DHT22;7588;62.368;25.902;2023-04-27T08:11:43;7.50;99.90
14985;DHT22;7588;62.368;25.902;2023-04-27T08:14:08;7.60;99.90
14985;DHT22;7588;62.368;25.902;2023-04-27T08:16:42;7.80;99.90
14985;DHT22;7588;62.368;25.902;2023-04-27T08:19:09;8.00;99.90
14985;DHT22;7588;62.368;25.902;2023-04-27T08:21:38;8.30;99.90
14985;DHT22;7588;62.368;25.902;2023-04-27T08:24:05;8.30;99.90
14985;DHT22;7588;62.368;25.902;2023-04-27T08:26:31;8.30;99.90
14985;DHT22;7588;62.368;25.902;2023-04-27T08:28:57;8.00;99.90
14985;DHT22;7588;62.368;25.902;2023-04-27T08:31:24;7.90;99.90
14985;DHT22;7588;62.368;25.902;2023-04-27T08:33:51;7.80;99.90
14985;DHT22;7588;62.368;25.902;2023-04-27T08:36:21;7.80;99.90
14985;DHT22;7588;62.368;25.902;2023-04-27T08:38:50;7.70;99.90
14985;DHT22;7588;62.368;25.902;2023-04-27T08:41:22;7.50;99.90
14985;DHT22;7588;62.368;25.902;2023-04-27T08:43:49;7.50;99.90
14985;DHT22;7588;62.368;25.902;2023-04-27T08:46:22;7.30;99.90
14985;DHT22;7588;62.368;25.902;2023-04-27T08:48:52;7.30;99.90
14985;DHT22;7588;62.368;25.902;2023-04-27T08:51:20;7.30;99.90
14985;DHT22;7588;62.368;25.902;2023-04-27T08:53:53;7.30;99.90
14985;DHT22;7588;62.368;25.902;2023-04-27T08:56:20;7.10;99.90
14985;DHT22;7588;62.368;25.902;2023-04-27T08:58:53;7.10;99.90
14985;DHT22;7588;62.368;25.902;2023-04-27T09:01:19;7.10;99.90
14985;DHT22;7588;62.368;25.902;2023-04-27T09:03:46;7.00;99.90
14985;DHT22;7588;62.368;25.902;2023-04-27T09:06:13;6.80;99.90
14985;DHT22;7588;62.368;25.902;2023-04-27T09:08:41;6.70;99.90
14985;DHT22;7588;62.368;25.902;2023-04-27T09:11:07;6.60;99.90
14985;DHT22;7588;62.368;25.902;2023-04-27T09:13:39;6.50;99.90
14985;DHT22;7588;62.368;25.902;2023-04-27T09:16:06;6.40;99.90
14985;DHT22;7588;62.368;25.902;2023-04-27T09:18:35;6.40;99.90
14985;DHT22;7588;62.368;25.902;2023-04-27T09:21:02;6.40;99.90
14985;DHT22;7588;62.368;25.902;2023-04-27T09:23:37;6.30;99.90
14985;DHT22;7588;62.368;25.902;2023-04-27T09:26:05;6.30;99.90
14985;DHT22;7588;62.368;25.902;2023-04-27T09:28:36;6.30;99.90
14985;DHT22;7588;62.368;25.902;2023-04-27T09:31:02;6.20;99.90
14985;DHT22;7588;62.368;25.902;2023-04-27T09:33:33;6.00;99.90
14985;DHT22;7588;62.368;25.902;2023-04-27T09:36:04;5.80;99.90
14985;DHT22;7588;62.368;25.902;2023-04-27T09:38:30;5.80;99.90
14985;DHT22;7588;62.368;25.902;2023-04-27T09:40:57;5.70;99.90
14985;DHT22;7588;62.368;25.902;2023-04-27T09:43:23;5.70;99.90
14985;DHT22;7588;62.368;25.902;2023-04-27T09:45:52;5.70;99.90
14985;DHT22;7588;62.368;25.902;2023-04-27T09:48:20;5.80;99.90
14985;DHT22;7588;62.368;25.902;2023-04-27T09:50:48;6.00;99.90
14985;DHT22;7588;62.368;25.902;2023-04-27T09:53:20;6.20;99.90
14985;DHT22;7588;62.368;25.902;2023-04-27T10:01:50;6.40;99.90
14985;DHT22;7588;62.368;25.902;2023-04-27T10:07:10;6.20;99.90
14985;DHT22;7588;62.368;25.902;2023-04-27T10:09:41;6.00;99.90
14985;DHT22;7588;62.368;25.902;2023-04-27T10:14:57;6.00;99.90
14985;DHT22;7588;62.368;25.902;2023-04-27T10:17:28;6.00;99.90
14985;DHT22;7588;62.368;25.902;2023-04-27T10:20:05;6.00;99.90
14985;DHT22;7588;62.368;25.902;2023-04-27T10:22:42;6.00;99.90
14985;DHT22;7588;62.368;25.902;2023-04-27T10:28:04;6.00;99.90
14985;DHT22;7588;62.368;25.902;2023-04-27T10:30:38;5.90;99.90
14985;DHT22;7588;62.368;25.902;2023-04-27T10:33:10;5.80;99.90
14985;DHT22;7588;62.368;25.902;2023-04-27T10:35:40;5.90;99.90
14985;DHT22;7588;62.368;25.902;2023-04-27T10:38:18;5.90;99.90
14985;DHT22;7588;62.368;25.902;2023-04-27T10:40:56;5.90;99.90
14985;DHT22;7588;62.368;25.902;2023-04-27T10:43:27;5.80;99.90
14985;DHT22;7588;62.368;25.902;2023-04-27T10:45:53;5.70;99.90
14985;DHT22;7588;62.368;25.902;2023-04-27T10:48:20;5.70;99.90
14985;DHT22;7588;62.368;25.902;2023-04-27T10:50:46;5.70;99.90
14985;DHT22;7588;62.368;25.902;2023-04-27T10:53:12;5.70;99.90
14985;DHT22;7588;62.368;25.902;2023-04-27T10:55:41;5.60;99.90
14985;DHT22;7588;62.368;25.902;2023-04-27T10:58:07;5.60;99.90
14985;DHT22;7588;62.368;25.902;2023-04-27T11:00:35;5.70;99.90
14985;DHT22;7588;62.368;25.902;2023-04-27T11:03:16;5.70;99.90
14985;DHT22;7588;62.368;25.902;2023-04-27T11:05:44;5.60;99.90
14985;DHT22;7588;62.368;25.902;2023-04-27T11:08:12;5.50;99.90
14985;DHT22;7588;62.368;25.902;2023-04-27T11:10:39;5.40;99.90
14985;DHT22;7588;62.368;25.902;2023-04-27T11:13:23;5.50;99.90
14985;DHT22;7588;62.368;25.902;2023-04-27T11:15:51;5.40;99.90
14985;DHT22;7588;62.368;25.902;2023-04-27T11:18:20;5.40;99.90
14985;DHT22;7588;62.368;25.902;2023-04-27T11:20:51;5.30;99.90
14985;DHT22;7588;62.368;25.902;2023-04-27T11:23:28;5.30;99.90
14985;DHT22;7588;62.368;25.902;2023-04-27T11:25:55;5.20;99.90
14985;DHT22;7588;62.368;25.902;2023-04-27T11:28:24;5.30;99.90
14985;DHT22;7588;62.368;25.902;2023-04-27T11:30:59;5.20;99.90
14985;DHT22;7588;62.368;25.902;2023-04-27T11:33:26;5.10;99.90
14985;DHT22;7588;62.368;25.902;2023-04-27T11:35:52;5.00;99.90
14985;DHT22;7588;62.368;25.902;2023-04-27T11:38:18;4.90;99.90
14985;DHT22;7588;62.368;25.902;2023-04-27T11:41:06;4.90;99.90
14985;DHT22;7588;62.368;25.902;2023-04-27T11:43:32;4.70;99.90
14985;DHT22;7588;62.368;25.902;2023-04-27T11:46:02;4.70;99.90
14985;DHT22;7588;62.368;25.902;2023-04-27T11:48:28;4.60;99.90
14985;DHT22;7588;62.368;25.902;2023-04-27T11:50:56;4.60;99.90
14985;DHT22;7588;62.368;25.902;2023-04-27T11:53:34;4.60;99.90
14985;DHT22;7588;62.368;25.902;2023-04-27T11:56:05;4.50;99.90
14985;DHT22;7588;62.368;25.902;2023-04-27T11:58:33;4.60;99.90
14985;DHT22;7588;62.368;25.902;2023-04-27T12:00:59;4.50;99.90
14985;DHT22;7588;62.368;25.902;2023-04-27T12:03:27;4.60;99.90
14985;DHT22;7588;62.368;25.902;2023-04-27T12:05:52;4.60;99.90
14985;DHT22;7588;62.368;25.902;2023-04-27T12:08:19;4.40;99.90
14985;DHT22;7588;62.368;25.902;2023-04-27T12:10:45;4.40;99.90
14985;DHT22;7588;62.368;25.902;2023-04-27T12:13:11;4.40;99.90
14985;DHT22;7588;62.368;25.902;2023-04-27T12:15:39;4.50;99.90
14985;DHT22;7588;62.368;25.902;2023-04-27T12:18:05;4.50;99.90
14985;DHT22;7588;62.368;25.902;2023-04-27T12:20:31;4.60;99.90
14985;DHT22;7588;62.368;25.902;2023-04-27T12:22:57;4.60;99.90
14985;DHT22;7588;62.368;25.902;2023-04-27T12:25:25;4.60;99.90
14985;DHT22;7588;62.368;25.902;2023-04-27T12:27:51;4.60;99.90
14985;DHT22;7588;62.368;25.902;2023-04-27T12:30:18;4.60;99.90
14985;DHT22;7588;62.368;25.902;2023-04-27T12:32:43;4.60;99.90
14985;DHT22;7588;62.368;25.902;2023-04-27T12:35:09;4.60;99.90
14985;DHT22;7588;62.368;25.902;2023-04-27T12:37:35;4.60;99.90
14985;DHT22;7588;62.368;25.902;2023-04-27T12:40:01;4.50;99.90
14985;DHT22;7588;62.368;25.902;2023-04-27T12:42:30;4.30;99.90
14985;DHT22;7588;62.368;25.902;2023-04-27T12:44:56;4.30;99.90
14985;DHT22;7588;62.368;25.902;2023-04-27T12:47:21;4.30;99.90
14985;DHT22;7588;62.368;25.902;2023-04-27T12:49:47;4.30;99.90
14985;DHT22;7588;62.368;25.902;2023-04-27T12:52:13;4.30;99.90
14985;DHT22;7588;62.368;25.902;2023-04-27T12:54:39;4.20;99.90
14985;DHT22;7588;62.368;25.902;2023-04-27T12:57:05;4.20;99.90
14985;DHT22;7588;62.368;25.902;2023-04-27T12:59:34;4.20;99.90
14985;DHT22;7588;62.368;25.902;2023-04-27T13:02:01;4.20;99.90
14985;DHT22;7588;62.368;25.902;2023-04-27T13:04:28;4.20;99.90
14985;DHT22;7588;62.368;25.902;2023-04-27T13:06:56;4.20;99.90
14985;DHT22;7588;62.368;25.902;2023-04-27T13:09:24;4.20;99.90
14985;DHT22;7588;62.368;25.902;2023-04-27T13:11:49;4.20;99.90
14985;DHT22;7588;62.368;25.902;2023-04-27T13:14:17;4.30;99.90
14985;DHT22;7588;62.368;25.902;2023-04-27T13:16:42;4.20;99.90
14985;DHT22;7588;62.368;25.902;2023-04-27T13:19:08;4.10;99.90
14985;DHT22;7588;62.368;25.902;2023-04-27T13:21:34;4.10;99.90
14985;DHT22;7588;62.368;25.902;2023-04-27T13:23:59;4.10;99.90
14985;DHT22;7588;62.368;25.902;2023-04-27T13:26:25;4.00;99.90
14985;DHT22;7588;62.368;25.902;2023-04-27T13:28:51;4.10;99.90
14985;DHT22;7588;62.368;25.902;2023-04-27T13:31:17;4.10;99.90
14985;DHT22;7588;62.368;25.902;2023-04-27T13:33:43;4.00;99.90
14985;DHT22;7588;62.368;25.902;2023-04-27T13:36:09;4.00;99.90
14985;DHT22;7588;62.368;25.902;2023-04-27T13:38:35;3.80;99.90
14985;DHT22;7588;62.368;25.902;2023-04-27T13:41:01;3.80;99.90
14985;DHT22;7588;62.368;25.902;2023-04-27T13:43:27;3.80;99.90
14985;DHT22;7588;62.368;25.902;2023-04-27T13:45:53;3.80;99.90
14985;DHT22;7588;62.368;25.902;2023-04-27T13:48:20;3.80;99.90
14985;DHT22;7588;62.368;25.902;2023-04-27T13:50:46;3.70;99.90
14985;DHT22;7588;62.368;25.902;2023-04-27T13:53:12;3.60;99.90
14985;DHT22;7588;62.368;25.902;2023-04-27T13:55:40;3.60;99.90
14985;DHT22;7588;62.368;25.902;2023-04-27T13:58:06;3.60;99.90
14985;DHT22;7588;62.368;25.902;2023-04-27T14:00:32;3.60;99.90
14985;DHT22;7588;62.368;25.902;2023-04-27T14:02:59;3.50;99.90
14985;DHT22;7588;62.368;25.902;2023-04-27T14:05:25;3.50;99.90
14985;DHT22;7588;62.368;25.902;2023-04-27T14:07:51;3.40;99.90
14985;DHT22;7588;62.368;25.902;2023-04-27T14:10:18;3.40;99.90
14985;DHT22;7588;62.368;25.902;2023-04-27T14:12:44;3.40;99.90
14985;DHT22;7588;62.368;25.902;2023-04-27T14:15:10;3.40;99.90
14985;DHT22;7588;62.368;25.902;2023-04-27T14:17:36;3.30;99.90
14985;DHT22;7588;62.368;25.902;2023-04-27T14:20:02;3.20;99.90
14985;DHT22;7588;62.368;25.902;2023-04-27T14:22:33;3.10;99.90
14985;DHT22;7588;62.368;25.902;2023-04-27T14:24:59;3.00;99.90
14985;DHT22;7588;62.368;25.902;2023-04-27T14:27:25;3.00;99.90
14985;DHT22;7588;62.368;25.902;2023-04-27T14:29:51;3.10;99.90
14985;DHT22;7588;62.368;25.902;2023-04-27T14:32:16;3.10;99.90
14985;DHT22;7588;62.368;25.902;2023-04-27T14:34:42;3.10;99.90
14985;DHT22;7588;62.368;25.902;2023-04-27T14:37:08;3.20;99.90
14985;DHT22;7588;62.368;25.902;2023-04-27T14:39:34;3.10;99.90
14985;DHT22;7588;62.368;25.902;2023-04-27T14:42:00;3.10;99.90
14985;DHT22;7588;62.368;25.902;2023-04-27T14:44:26;3.10;99.90
14985;DHT22;7588;62.368;25.902;2023-04-27T14:46:52;3.00;99.90
14985;DHT22;7588;62.368;25.902;2023-04-27T14:49:17;3.00;99.90
14985;DHT22;7588;62.368;25.902;2023-04-27T14:51:44;3.00;99.90
14985;DHT22;7588;62.368;25.902;2023-04-27T14:54:09;3.00;99.90
14985;DHT22;7588;62.368;25.902;2023-04-27T14:56:35;3.00;99.90
14985;DHT22;7588;62.368;25.902;2023-04-27T14:59:01;2.90;99.90
14985;DHT22;7588;62.368;25.902;2023-04-27T15:01:27;3.10;99.90
14985;DHT22;7588;62.368;25.902;2023-04-27T15:03:54;3.10;99.90
14985;DHT22;7588;62.368;25.902;2023-04-27T15:06:20;3.00;99.90
14985;DHT22;7588;62.368;25.902;2023-04-27T15:08:46;2.90;99.90
14985;DHT22;7588;62.368;25.902;2023-04-27T15:11:12;2.90;99.90
14985;DHT22;7588;62.368;25.902;2023-04-27T15:13:38;2.90;99.90
14985;DHT22;7588;62.368;25.902;2023-04-27T15:16:04;3.00;99.90
14985;DHT22;7588;62.368;25.902;2023-04-27T15:18:31;3.00;99.90
14985;DHT22;7588;62.368;25.902;2023-04-27T15:20:58;3.00;99.90
14985;DHT22;7588;62.368;25.902;2023-04-27T15:23:24;3.10;99.90
14985;DHT22;7588;62.368;25.902;2023-04-27T15:25:53;3.00;99.90
14985;DHT22;7588;62.368;25.902;2023-04-27T15:28:19;3.00;99.90
14985;DHT22;7588;62.368;25.902;2023-04-27T15:30:46;3.00;99.90
14985;DHT22;7588;62.368;25.902;2023-04-27T15:33:13;3.00;99.90
14985;DHT22;7588;62.368;25.902;2023-04-27T15:35:40;2.90;99.90
14985;DHT22;7588;62.368;25.902;2023-04-27T15:38:07;2.90;99.90
14985;DHT22;7588;62.368;25.902;2023-04-27T15:40:33;3.00;99.90
14985;DHT22;7588;62.368;25.902;2023-04-27T15:43:00;3.00;99.90
14985;DHT22;7588;62.368;25.902;2023-04-27T15:45:27;3.00;99.90
14985;DHT22;7588;62.368;25.902;2023-04-27T15:47:53;3.00;99.90
14985;DHT22;7588;62.368;25.902;2023-04-27T15:50:18;3.00;99.90
14985;DHT22;7588;62.368;25.902;2023-04-27T15:52:44;3.00;99.90
14985;DHT22;7588;62.368;25.902;2023-04-27T15:55:10;3.00;99.90
14985;DHT22;7588;62.368;25.902;2023-04-27T15:57:36;3.10;99.90